Portada
METAR-TAF:

METAR-TAF

Aeroports :

Aeroport de Tànger Ibn Battuta

Tànger, Marroc

latitud: 35-44N, longitud: 005-54W, altitud: 19 m

Observació

L'informe es va fer fa 39 minuts, a les 16:30 UTC
Vent 6 kt del Oest, variant entre Sud-Oest i Oest/Nord-Oest
Temperatura 24°C
Humitat 69%
Pressió 1017 hPa
Visibilitat: 8000 m
Escasses núvols a una alçada de 1600 ft

METAR: GMTT 181630Z 26006KT 230V300 8000 FEW016 24/18 Q1017 NOSIG

Hora: 18:09 (17:09 UTC)

Pronòstic

L'informe es va fer fa 6 hores i 9 minuts, a les 11:00 UTC
Pronòstic vàlid del 18 a les 12 UTC al 19 a les 18 UTC
Vent 9 kt del Oest/Nord-Oest
Visibilitat: 4000 m
Núvols disperses a una alçada de 600 ft
boirina
Evolucionant progressivament
l' 19 a les 07 UTC al 19 a les 09 UTC
Vent 20 kt del Est
Visibilitat: 8000 m
Temporalment
l' 19 a les 07 UTC al 19 a les 18 UTC
Vent 20 kt del Est amb ràfegues de 32 kt

TAF: GMTT 181100Z 1812/1918 29009KT 4000 BR SCT006 BECMG 1907/1909 09020KT 8000 NSW TEMPO 1907/1918 09020G32KT

Observacions i pronòstics meteorològics de més de 4000 aeroports (METAR i TAF).

Les estacions disponibles són els punts grocs i vermells al mapa.

Posi el ratolí al punt desitjat per veure el nom de l'estació.

Feu clic per veure les observacions i els pronòstics meteorològics.

Per canviar el mapa: feu clic els botons verds amb una creu de color negre per apropar; al botó verd amb un guió per allunyar la imatge; o en les fletxes verdes per a mapes adjacents.


METAR-TAF: